Plant City, FL (33563)

10:55 PM EDT on August 31, 2015 (GMT -0400)
Plant City Farm & Flea Market | | Change Station
CLOSE
Current Station
Personal Weather Station
Location: Plant City, FL
Elevation: 131 ft
Nearby Weather Stations

Elev 131 ft 28.05 °N, 82.13 °W | Updated 5 seconds ago

Scattered Clouds
Scattered Clouds
78.3 °F
Feels Like 81 °F
N
0.0
Wind Variable Wind from ESE
Gusts 0.0 mph

Today
High -- | Low -- °F
--% Chance of Precip.
Yesterday
High -- | Low -- °F
Precip. -- in
7:06 AM 7:50 PM
Waning Gibbous, 92% visible
Pressure 30.09 in
Visibility 10.0 miles
Clouds Scattered Clouds 2000 ft
Scattered Clouds 2400 ft
Scattered Clouds 4000 ft
Heat Index 81 °F
Dew Point 76 °F
Humidity 94%
Rainfall in
Snow Depth Not available.
UV 0.0 out of 12
Pollen .60 out of 12
Air Quality Not available.
Flu Activity Not available.
METAR KPCM 010235Z AUTO 00000KT 10SM SCT020 SCT024 SCT040 26/25 A3009 RMK AO2
Pressure 30.09 in
Visibility 10.0 miles
Clouds Scattered Clouds 2000 ft
Scattered Clouds 2400 ft
Scattered Clouds 4000 ft
Heat Index 81 °F
Dew Point 76 °F
Humidity 94%
Rainfall in
Snow Depth Not available.
UV 0.0 out of 12
Pollen .60 out of 12
Air Quality Not available.
Flu Activity Not available.
METAR KPCM 010235Z AUTO 00000KT 10SM SCT020 SCT024 SCT040 26/25 A3009 RMK AO2

10-Day Weather Forecast

×

Almanac

Astronomy

Aug. 31, 2015 Rise Set
Actual Time
Civil Twilight
Nautical Twilight
Astronomical Twilight
Moon
Length of Visible Light
Length of Day
Tomorrow will be .
, % of the Moon is Illuminated

Today's Extremes

State Highs State Lows

Community

WunderPhotos

Upload Photos

1,851,459 photos uploaded!

WunderBlogs® & News

Nearby

Air Quality

  Air Quality AQ Index Pollutant
Not available.

Snow Depth

Station Depth Elevation

Earthquake Activity

City Distance Mag. Time & Date
Minimum magnitude displayed is 2.5.

Coastal Water Temperatures

Place Temperature

Stations

Nearby Weather Stations

Station Location Temp. Windchill Dew Point Humidity Wind Precip. Elev Updated Type